CKK077 ZSSS-ZSNJ
Flight info
| Callsign | CKK077 |
|---|---|
| Flight time | 0h 44m |
| Altitude | 11800 |
| Route | SAS61D SASAN R343 ESBAG ESB71F |
| Aircraft | B77L/H-SDE1E2E3FGHIJ2J3J4J5M1RWXY/LB1D1 |
Departure
| Time | 2026-04-20 21:26 |
|---|---|
| Airport | Shanghai Hongqiao International Airport (ZSSS) |
Arrival
| Time | 2026-04-20 22:10 |
|---|---|
| Airport | Nanjing Lukou International Airport (ZSNJ) |
| Time | Latitude | Longitude | Altitude | Speed | Heading |
|---|---|---|---|---|---|
| 2026-04-20 20:43 | 31.21070 | 121.32727 | 25 ft | 0 kts | 267° |
| 2026-04-20 21:10 | 31.21071 | 121.32751 | 25 ft | 4 kts | 267° |
| 2026-04-20 21:10 | 31.21073 | 121.32783 | 29 ft | 4 kts | 269° |
| 2026-04-20 21:11 | 31.21070 | 121.32812 | 29 ft | 4 kts | 300° |
| 2026-04-20 21:11 | 31.21057 | 121.32825 | 29 ft | 2 kts | 357° |
| 2026-04-20 21:11 | 31.21032 | 121.32826 | 27 ft | 4 kts | 357° |
| 2026-04-20 21:11 | 31.21010 | 121.32827 | 26 ft | 0 kts | 357° |
| 2026-04-20 21:15 | 31.21019 | 121.32827 | 24 ft | 3 kts | 357° |
| 2026-04-20 21:15 | 31.21043 | 121.32825 | 26 ft | 4 kts | 356° |
| 2026-04-20 21:16 | 31.21082 | 121.32822 | 28 ft | 7 kts | 356° |
| 2026-04-20 21:16 | 31.21130 | 121.32819 | 25 ft | 7 kts | 356° |
| 2026-04-20 21:16 | 31.21169 | 121.32845 | 25 ft | 7 kts | 62° |
| 2026-04-20 21:16 | 31.21195 | 121.32890 | 27 ft | 7 kts | 33° |
| 2026-04-20 21:17 | 31.21243 | 121.32894 | 25 ft | 7 kts | 358° |
| 2026-04-20 21:17 | 31.21279 | 121.32924 | 26 ft | 7 kts | 65° |
| 2026-04-20 21:17 | 31.21285 | 121.32980 | 27 ft | 7 kts | 86° |
| 2026-04-20 21:17 | 31.21288 | 121.33038 | 26 ft | 8 kts | 87° |
| 2026-04-20 21:18 | 31.21291 | 121.33110 | 23 ft | 9 kts | 87° |
| 2026-04-20 21:18 | 31.21294 | 121.33187 | 25 ft | 9 kts | 88° |
| 2026-04-20 21:18 | 31.21296 | 121.33264 | 26 ft | 10 kts | 88° |
| 2026-04-20 21:18 | 31.21299 | 121.33341 | 23 ft | 9 kts | 87° |
| 2026-04-20 21:19 | 31.21301 | 121.33387 | 23 ft | 0 kts | 87° |
| 2026-04-20 21:23 | 31.21301 | 121.33389 | 23 ft | 1 kts | 87° |
| 2026-04-20 21:23 | 31.21302 | 121.33413 | 23 ft | 4 kts | 87° |
| 2026-04-20 21:23 | 31.21303 | 121.33456 | 24 ft | 6 kts | 87° |
| 2026-04-20 21:24 | 31.21305 | 121.33511 | 24 ft | 6 kts | 91° |
| 2026-04-20 21:24 | 31.21283 | 121.33547 | 29 ft | 6 kts | 154° |
| 2026-04-20 21:24 | 31.21254 | 121.33551 | 27 ft | 0 kts | 176° |
| 2026-04-20 21:24 | 31.21237 | 121.33552 | 27 ft | 13 kts | 176° |
| 2026-04-20 21:25 | 31.20934 | 121.33568 | 27 ft | 79 kts | 177° |
| 2026-04-20 21:25 | 31.20167 | 121.33609 | 23 ft | 140 kts | 177° |
| 2026-04-20 21:25 | 31.19050 | 121.33674 | 56 ft | 180 kts | 177° |
| 2026-04-20 21:25 | 31.17754 | 121.33721 | 432 ft | 188 kts | 178° |
| 2026-04-20 21:26 | 31.16422 | 121.33774 | 731 ft | 200 kts | 175° |
| 2026-04-20 21:26 | 31.14957 | 121.33869 | 1032 ft | 222 kts | 174° |
| 2026-04-20 21:26 | 31.13351 | 121.33973 | 1475 ft | 239 kts | 174° |
| 2026-04-20 21:26 | 31.11674 | 121.34078 | 2207 ft | 244 kts | 174° |
| 2026-04-20 21:27 | 31.09956 | 121.34182 | 2952 ft | 250 kts | 174° |
| 2026-04-20 21:27 | 31.08197 | 121.34286 | 3649 ft | 257 kts | 175° |
| 2026-04-20 21:27 | 31.06399 | 121.34138 | 4313 ft | 267 kts | 199° |
| 2026-04-20 21:27 | 31.04887 | 121.32872 | 4955 ft | 273 kts | 233° |
| 2026-04-20 21:28 | 31.04132 | 121.30839 | 5089 ft | 280 kts | 262° |
| 2026-04-20 21:28 | 31.04105 | 121.28577 | 5094 ft | 279 kts | 278° |
| 2026-04-20 21:28 | 31.04435 | 121.26386 | 5085 ft | 276 kts | 283° |
| 2026-04-20 21:28 | 31.04843 | 121.24215 | 5075 ft | 273 kts | 283° |
| 2026-04-20 21:29 | 31.05267 | 121.22049 | 5212 ft | 274 kts | 283° |
| 2026-04-20 21:29 | 31.05681 | 121.19885 | 6124 ft | 272 kts | 282° |
| 2026-04-20 21:29 | 31.06080 | 121.17748 | 7228 ft | 267 kts | 282° |
| 2026-04-20 21:29 | 31.06495 | 121.15623 | 8048 ft | 270 kts | 287° |
| 2026-04-20 21:30 | 31.07471 | 121.13725 | 8733 ft | 281 kts | 315° |
| 2026-04-20 21:30 | 31.09169 | 121.12573 | 9541 ft | 289 kts | 342° |
| 2026-04-20 21:30 | 31.11178 | 121.12279 | 10276 ft | 295 kts | 355° |
| 2026-04-20 21:30 | 31.13290 | 121.12189 | 10691 ft | 315 kts | 355° |
| 2026-04-20 21:31 | 31.14816 | 121.12117 | 10820 ft | 334 kts | 355° |
| 2026-04-20 21:31 | 31.17227 | 121.12003 | 11027 ft | 360 kts | 355° |
| 2026-04-20 21:31 | 31.19778 | 121.11870 | 11380 ft | 380 kts | 355° |
| 2026-04-20 21:31 | 31.22461 | 121.11723 | 12040 ft | 391 kts | 355° |
| 2026-04-20 21:32 | 31.25203 | 121.11570 | 12820 ft | 397 kts | 355° |
| 2026-04-20 21:32 | 31.27981 | 121.11413 | 13670 ft | 402 kts | 355° |
| 2026-04-20 21:32 | 31.30773 | 121.11185 | 14357 ft | 402 kts | 348° |
| 2026-04-20 21:32 | 31.33405 | 121.10072 | 14917 ft | 404 kts | 325° |
| 2026-04-20 21:33 | 31.35496 | 121.07939 | 15817 ft | 397 kts | 307° |
| 2026-04-20 21:33 | 31.36996 | 121.05280 | 16785 ft | 390 kts | 292° |
| 2026-04-20 21:33 | 31.37976 | 121.02334 | 17526 ft | 390 kts | 288° |
| 2026-04-20 21:33 | 31.38867 | 120.99321 | 18230 ft | 394 kts | 287° |
| 2026-04-20 21:34 | 31.39746 | 120.96277 | 18928 ft | 395 kts | 287° |
| 2026-04-20 21:34 | 31.40631 | 120.93219 | 19548 ft | 398 kts | 287° |
| 2026-04-20 21:34 | 31.41534 | 120.90138 | 20125 ft | 402 kts | 288° |
| 2026-04-20 21:34 | 31.42455 | 120.87029 | 20720 ft | 406 kts | 288° |
| 2026-04-20 21:35 | 31.43391 | 120.83900 | 21334 ft | 409 kts | 288° |
| 2026-04-20 21:35 | 31.44336 | 120.80753 | 21912 ft | 412 kts | 288° |
| 2026-04-20 21:35 | 31.45293 | 120.77575 | 22494 ft | 415 kts | 288° |
| 2026-04-20 21:35 | 31.46256 | 120.74379 | 23052 ft | 418 kts | 288° |
| 2026-04-20 21:36 | 31.47226 | 120.71158 | 23586 ft | 421 kts | 288° |
| 2026-04-20 21:36 | 31.48202 | 120.67910 | 24051 ft | 424 kts | 288° |
| 2026-04-20 21:36 | 31.49184 | 120.64642 | 24501 ft | 427 kts | 288° |
| 2026-04-20 21:36 | 31.50171 | 120.61353 | 24969 ft | 429 kts | 288° |
| 2026-04-20 21:37 | 31.51163 | 120.58043 | 25437 ft | 431 kts | 287° |
| 2026-04-20 21:37 | 31.52157 | 120.54722 | 25902 ft | 434 kts | 287° |
| 2026-04-20 21:37 | 31.53146 | 120.51412 | 26162 ft | 439 kts | 287° |
| 2026-04-20 21:37 | 31.54167 | 120.47992 | 26151 ft | 448 kts | 287° |
| 2026-04-20 21:38 | 31.55201 | 120.44523 | 26153 ft | 451 kts | 287° |
| 2026-04-20 21:38 | 31.56236 | 120.41054 | 26147 ft | 450 kts | 287° |
| 2026-04-20 21:38 | 31.57266 | 120.37598 | 26150 ft | 449 kts | 287° |
| 2026-04-20 21:38 | 31.58293 | 120.34143 | 26149 ft | 447 kts | 287° |
| 2026-04-20 21:39 | 31.59139 | 120.30685 | 26137 ft | 438 kts | 278° |
| 2026-04-20 21:39 | 31.59396 | 120.27101 | 26158 ft | 445 kts | 272° |
| 2026-04-20 21:39 | 31.59510 | 120.23489 | 26146 ft | 439 kts | 271° |
| 2026-04-20 21:39 | 31.59621 | 120.19935 | 25764 ft | 434 kts | 272° |
| 2026-04-20 21:40 | 31.59749 | 120.16422 | 25292 ft | 429 kts | 272° |
| 2026-04-20 21:40 | 31.59894 | 120.12938 | 24753 ft | 425 kts | 272° |
| 2026-04-20 21:40 | 31.60051 | 120.09491 | 24195 ft | 422 kts | 272° |
| 2026-04-20 21:40 | 31.60214 | 120.06062 | 23589 ft | 420 kts | 272° |
| 2026-04-20 21:41 | 31.60378 | 120.02647 | 22940 ft | 418 kts | 272° |
| 2026-04-20 21:41 | 31.60539 | 119.99306 | 22364 ft | 414 kts | 272° |
| 2026-04-20 21:41 | 31.60700 | 119.95943 | 21796 ft | 410 kts | 272° |
| 2026-04-20 21:41 | 31.60858 | 119.92617 | 21251 ft | 407 kts | 272° |
| 2026-04-20 21:42 | 31.61014 | 119.89312 | 20715 ft | 404 kts | 272° |
| 2026-04-20 21:42 | 31.61168 | 119.86030 | 20190 ft | 402 kts | 272° |
| 2026-04-20 21:42 | 31.61320 | 119.82768 | 19673 ft | 399 kts | 272° |
| 2026-04-20 21:42 | 31.61470 | 119.79520 | 19139 ft | 398 kts | 272° |
| 2026-04-20 21:43 | 31.61619 | 119.76284 | 18605 ft | 397 kts | 272° |
| 2026-04-20 21:43 | 31.61767 | 119.73050 | 18030 ft | 396 kts | 272° |
| 2026-04-20 21:43 | 31.61914 | 119.69827 | 17465 ft | 395 kts | 272° |
| 2026-04-20 21:43 | 31.62062 | 119.66619 | 16931 ft | 393 kts | 273° |
| 2026-04-20 21:44 | 31.62285 | 119.63436 | 16412 ft | 391 kts | 275° |
| 2026-04-20 21:44 | 31.62568 | 119.60273 | 15902 ft | 389 kts | 275° |
| 2026-04-20 21:44 | 31.62865 | 119.57117 | 15388 ft | 388 kts | 275° |
| 2026-04-20 21:44 | 31.63159 | 119.53973 | 14883 ft | 387 kts | 275° |
| 2026-04-20 21:45 | 31.63446 | 119.50826 | 14380 ft | 387 kts | 275° |
| 2026-04-20 21:45 | 31.63725 | 119.47684 | 13856 ft | 387 kts | 274° |
| 2026-04-20 21:45 | 31.63999 | 119.44546 | 13292 ft | 386 kts | 274° |
| 2026-04-20 21:45 | 31.64265 | 119.41455 | 12763 ft | 385 kts | 274° |
| 2026-04-20 21:46 | 31.64531 | 119.38352 | 12234 ft | 376 kts | 274° |
| 2026-04-20 21:46 | 31.64787 | 119.35353 | 11739 ft | 365 kts | 274° |
| 2026-04-20 21:46 | 31.65038 | 119.32398 | 11275 ft | 363 kts | 274° |
| 2026-04-20 21:46 | 31.65285 | 119.29471 | 10987 ft | 356 kts | 274° |
| 2026-04-20 21:47 | 31.65526 | 119.26623 | 10838 ft | 345 kts | 274° |
| 2026-04-20 21:47 | 31.65759 | 119.23863 | 10667 ft | 335 kts | 273° |
| 2026-04-20 21:47 | 31.65986 | 119.21180 | 10522 ft | 325 kts | 273° |
| 2026-04-20 21:47 | 31.66204 | 119.18574 | 10386 ft | 315 kts | 273° |
| 2026-04-20 21:48 | 31.66415 | 119.16060 | 10254 ft | 305 kts | 272° |
| 2026-04-20 21:48 | 31.66619 | 119.13612 | 10125 ft | 295 kts | 272° |
| 2026-04-20 21:48 | 31.66814 | 119.11256 | 9987 ft | 285 kts | 272° |
| 2026-04-20 21:48 | 31.67003 | 119.08968 | 9697 ft | 281 kts | 272° |
| 2026-04-20 21:49 | 31.67190 | 119.06693 | 9370 ft | 278 kts | 272° |
| 2026-04-20 21:49 | 31.67375 | 119.04445 | 9057 ft | 275 kts | 272° |
| 2026-04-20 21:49 | 31.67557 | 119.02250 | 8938 ft | 264 kts | 272° |
| 2026-04-20 21:49 | 31.67732 | 119.00136 | 8724 ft | 257 kts | 272° |
| 2026-04-20 21:50 | 31.67896 | 118.98098 | 8429 ft | 250 kts | 270° |
| 2026-04-20 21:50 | 31.67618 | 118.96177 | 8089 ft | 232 kts | 239° |
| 2026-04-20 21:50 | 31.66772 | 118.94591 | 7848 ft | 232 kts | 236° |
| 2026-04-20 21:50 | 31.65905 | 118.92962 | 7505 ft | 237 kts | 236° |
| 2026-04-20 21:51 | 31.65042 | 118.91327 | 7163 ft | 234 kts | 236° |
| 2026-04-20 21:51 | 31.64199 | 118.89738 | 6928 ft | 226 kts | 236° |
| 2026-04-20 21:51 | 31.63373 | 118.88188 | 6558 ft | 222 kts | 236° |
| 2026-04-20 21:51 | 31.62562 | 118.86670 | 6267 ft | 218 kts | 236° |
| 2026-04-20 21:52 | 31.61756 | 118.85160 | 5973 ft | 219 kts | 236° |
| 2026-04-20 21:52 | 31.60943 | 118.83641 | 5703 ft | 222 kts | 235° |
| 2026-04-20 21:52 | 31.60124 | 118.82115 | 5414 ft | 219 kts | 236° |
| 2026-04-20 21:52 | 31.59328 | 118.80627 | 5139 ft | 212 kts | 235° |
| 2026-04-20 21:53 | 31.58551 | 118.79173 | 4896 ft | 210 kts | 234° |
| 2026-04-20 21:53 | 31.57776 | 118.77732 | 4613 ft | 209 kts | 234° |
| 2026-04-20 21:53 | 31.57118 | 118.76216 | 4273 ft | 212 kts | 258° |
| 2026-04-20 21:53 | 31.57289 | 118.74490 | 3885 ft | 226 kts | 301° |
| 2026-04-20 21:54 | 31.58458 | 118.73167 | 3963 ft | 254 kts | 328° |
| 2026-04-20 21:54 | 31.60004 | 118.72027 | 3468 ft | 267 kts | 330° |
| 2026-04-20 21:54 | 31.61587 | 118.70887 | 3088 ft | 264 kts | 333° |
| 2026-04-20 21:54 | 31.63236 | 118.70244 | 2946 ft | 240 kts | 8° |
| 2026-04-20 21:55 | 31.64712 | 118.70891 | 2992 ft | 228 kts | 50° |
| 2026-04-20 21:55 | 31.65419 | 118.72525 | 3005 ft | 231 kts | 88° |
| 2026-04-20 21:55 | 31.65510 | 118.74420 | 2996 ft | 236 kts | 78° |
| 2026-04-20 21:55 | 31.66302 | 118.76121 | 3007 ft | 240 kts | 58° |
| 2026-04-20 21:56 | 31.66977 | 118.77846 | 2993 ft | 235 kts | 88° |
| 2026-04-20 21:56 | 31.66881 | 118.79765 | 3011 ft | 234 kts | 97° |
| 2026-04-20 21:56 | 31.66806 | 118.81697 | 3143 ft | 238 kts | 91° |
| 2026-04-20 21:56 | 31.66841 | 118.83592 | 3593 ft | 236 kts | 89° |
| 2026-04-20 21:57 | 31.66934 | 118.85556 | 3634 ft | 244 kts | 87° |
| 2026-04-20 21:57 | 31.67077 | 118.87549 | 3571 ft | 242 kts | 86° |
| 2026-04-20 21:57 | 31.67253 | 118.89507 | 3790 ft | 241 kts | 85° |
| 2026-04-20 21:57 | 31.67445 | 118.91458 | 4144 ft | 240 kts | 85° |
| 2026-04-20 21:58 | 31.67646 | 118.93410 | 4411 ft | 242 kts | 85° |
| 2026-04-20 21:58 | 31.67850 | 118.95384 | 4653 ft | 245 kts | 85° |
| 2026-04-20 21:58 | 31.68025 | 118.97208 | 4856 ft | 245 kts | 90° |
| 2026-04-20 21:59 | 31.67890 | 118.98604 | 4934 ft | 246 kts | 111° |
| 2026-04-20 21:59 | 31.67003 | 119.00294 | 5145 ft | 245 kts | 137° |
| 2026-04-20 22:00 | 31.65591 | 119.01318 | 5615 ft | 238 kts | 162° |
| 2026-04-20 22:00 | 31.63974 | 119.01565 | 5956 ft | 237 kts | 186° |
| 2026-04-20 22:00 | 31.62428 | 119.00937 | 5947 ft | 236 kts | 213° |
| 2026-04-20 22:00 | 31.61302 | 118.99575 | 5949 ft | 225 kts | 235° |
| 2026-04-20 22:01 | 31.60719 | 118.97950 | 5937 ft | 218 kts | 257° |
| 2026-04-20 22:01 | 31.60516 | 118.96193 | 5958 ft | 218 kts | 259° |
| 2026-04-20 22:01 | 31.60310 | 118.94429 | 5959 ft | 218 kts | 259° |
| 2026-04-20 22:01 | 31.60100 | 118.92670 | 5950 ft | 217 kts | 258° |
| 2026-04-20 22:02 | 31.59780 | 118.90947 | 5951 ft | 215 kts | 253° |
| 2026-04-20 22:02 | 31.59392 | 118.89243 | 5897 ft | 218 kts | 252° |
| 2026-04-20 22:02 | 31.58999 | 118.87511 | 5641 ft | 221 kts | 252° |
| 2026-04-20 22:02 | 31.58615 | 118.85791 | 5346 ft | 214 kts | 252° |
| 2026-04-20 22:03 | 31.58257 | 118.84158 | 5150 ft | 200 kts | 253° |
| 2026-04-20 22:03 | 31.57922 | 118.82619 | 4887 ft | 190 kts | 252° |
| 2026-04-20 22:03 | 31.57603 | 118.81155 | 4696 ft | 184 kts | 252° |
| 2026-04-20 22:03 | 31.57285 | 118.79689 | 4522 ft | 184 kts | 252° |
| 2026-04-20 22:04 | 31.56970 | 118.78240 | 4294 ft | 184 kts | 252° |
| 2026-04-20 22:04 | 31.56655 | 118.76792 | 4117 ft | 182 kts | 252° |
| 2026-04-20 22:04 | 31.56499 | 118.75323 | 3923 ft | 187 kts | 279° |
| 2026-04-20 22:04 | 31.57209 | 118.74076 | 3771 ft | 189 kts | 329° |
| 2026-04-20 22:05 | 31.58346 | 118.73312 | 3695 ft | 190 kts | 332° |
| 2026-04-20 22:05 | 31.59482 | 118.72488 | 3525 ft | 194 kts | 331° |
| 2026-04-20 22:05 | 31.60620 | 118.71652 | 3296 ft | 191 kts | 332° |
| 2026-04-20 22:05 | 31.61744 | 118.70855 | 3057 ft | 184 kts | 340° |
| 2026-04-20 22:06 | 31.62942 | 118.70697 | 2875 ft | 174 kts | 24° |
| 2026-04-20 22:06 | 31.63846 | 118.71485 | 2727 ft | 160 kts | 57° |
| 2026-04-20 22:06 | 31.64547 | 118.72518 | 2569 ft | 163 kts | 59° |
| 2026-04-20 22:06 | 31.65254 | 118.73552 | 2338 ft | 159 kts | 60° |
| 2026-04-20 22:07 | 31.65872 | 118.74572 | 2128 ft | 147 kts | 64° |
| 2026-04-20 22:07 | 31.66413 | 118.75558 | 1943 ft | 141 kts | 66° |
| 2026-04-20 22:07 | 31.66934 | 118.76530 | 1761 ft | 141 kts | 66° |
| 2026-04-20 22:07 | 31.67455 | 118.77508 | 1575 ft | 142 kts | 65° |
| 2026-04-20 22:08 | 31.67976 | 118.78485 | 1379 ft | 141 kts | 64° |
| 2026-04-20 22:08 | 31.68499 | 118.79468 | 1170 ft | 142 kts | 62° |
| 2026-04-20 22:08 | 31.69021 | 118.80446 | 979 ft | 141 kts | 62° |
| 2026-04-20 22:08 | 31.69545 | 118.81429 | 777 ft | 143 kts | 60° |
| 2026-04-20 22:09 | 31.70077 | 118.82428 | 585 ft | 144 kts | 59° |
| 2026-04-20 22:09 | 31.70608 | 118.83406 | 371 ft | 142 kts | 58° |
| 2026-04-20 22:09 | 31.71135 | 118.84407 | 214 ft | 147 kts | 58° |
| 2026-04-20 22:09 | 31.71679 | 118.85430 | 98 ft | 148 kts | 58° |
| 2026-04-20 22:10 | 31.72208 | 118.86417 | 58 ft | 132 kts | 58° |
| 2026-04-20 22:10 | 31.72576 | 118.87107 | 55 ft | 67 kts | 58° |
| 2026-04-20 22:10 | 31.72719 | 118.87377 | 56 ft | 27 kts | 59° |
| 2026-04-20 22:10 | 31.72790 | 118.87511 | 56 ft | 12 kts | 57° |
| 2026-04-20 22:11 | 31.72859 | 118.87547 | 58 ft | 12 kts | 346° |
| 2026-04-20 22:11 | 31.72930 | 118.87501 | 54 ft | 12 kts | 326° |
| 2026-04-20 22:11 | 31.72944 | 118.87419 | 54 ft | 12 kts | 241° |
| 2026-04-20 22:11 | 31.72901 | 118.87339 | 63 ft | 12 kts | 237° |
| 2026-04-20 22:12 | 31.72856 | 118.87258 | 54 ft | 12 kts | 237° |
| 2026-04-20 22:12 | 31.72814 | 118.87178 | 54 ft | 12 kts | 239° |
| 2026-04-20 22:12 | 31.72772 | 118.87096 | 57 ft | 12 kts | 239° |
| 2026-04-20 22:12 | 31.72730 | 118.87014 | 54 ft | 12 kts | 238° |
| 2026-04-20 22:13 | 31.72686 | 118.86933 | 54 ft | 12 kts | 237° |
| 2026-04-20 22:13 | 31.72642 | 118.86853 | 57 ft | 12 kts | 237° |
| 2026-04-20 22:13 | 31.72603 | 118.86782 | 58 ft | 10 kts | 237° |
| 2026-04-20 22:13 | 31.72608 | 118.86712 | 55 ft | 10 kts | 317° |
| 2026-04-20 22:14 | 31.72674 | 118.86662 | 54 ft | 13 kts | 328° |
| 2026-04-20 22:14 | 31.72749 | 118.86608 | 59 ft | 13 kts | 328° |
| 2026-04-20 22:14 | 31.72823 | 118.86554 | 57 ft | 13 kts | 328° |
| 2026-04-20 22:14 | 31.72900 | 118.86497 | 55 ft | 14 kts | 328° |
| 2026-04-20 22:15 | 31.72983 | 118.86437 | 55 ft | 14 kts | 328° |
| 2026-04-20 22:15 | 31.73069 | 118.86373 | 55 ft | 15 kts | 328° |
| 2026-04-20 22:15 | 31.73158 | 118.86307 | 56 ft | 16 kts | 328° |
| 2026-04-20 22:15 | 31.73253 | 118.86237 | 60 ft | 16 kts | 328° |
| 2026-04-20 22:16 | 31.73351 | 118.86164 | 54 ft | 17 kts | 328° |
| 2026-04-20 22:16 | 31.73449 | 118.86092 | 54 ft | 17 kts | 328° |
| 2026-04-20 22:16 | 31.73549 | 118.86019 | 54 ft | 17 kts | 328° |
| 2026-04-20 22:16 | 31.73648 | 118.85946 | 57 ft | 17 kts | 327° |
| 2026-04-20 22:17 | 31.73742 | 118.85874 | 54 ft | 13 kts | 327° |
| 2026-04-20 22:17 | 31.73805 | 118.85846 | 56 ft | 9 kts | 12° |
| 2026-04-20 22:17 | 31.73859 | 118.85920 | 60 ft | 18 kts | 57° |
| 2026-04-20 22:17 | 31.73926 | 118.86047 | 53 ft | 18 kts | 58° |
| 2026-04-20 22:18 | 31.73994 | 118.86174 | 54 ft | 18 kts | 58° |
| 2026-04-20 22:18 | 31.74062 | 118.86301 | 55 ft | 18 kts | 58° |
| 2026-04-20 22:18 | 31.74129 | 118.86427 | 54 ft | 18 kts | 58° |
| 2026-04-20 22:18 | 31.74197 | 118.86554 | 54 ft | 18 kts | 57° |
| 2026-04-20 22:19 | 31.74242 | 118.86637 | 59 ft | 18 kts | 57° |
| 2026-04-20 22:19 | 31.74311 | 118.86764 | 57 ft | 18 kts | 57° |
| 2026-04-20 22:19 | 31.74358 | 118.86853 | 57 ft | 8 kts | 65° |
| 2026-04-20 22:19 | 31.74342 | 118.86908 | 55 ft | 8 kts | 139° |
| 2026-04-20 22:20 | 31.74313 | 118.86958 | 56 ft | 8 kts | 95° |
| 2026-04-20 22:20 | 31.74301 | 118.87016 | 57 ft | 8 kts | 128° |
| 2026-04-20 22:20 | 31.74264 | 118.87048 | 57 ft | 3 kts | 147° |
| 2026-04-20 22:20 | 31.74258 | 118.87053 | 57 ft | 1 kts | 148° |
| 2026-04-20 22:21 | 31.74256 | 118.87054 | 57 ft | 0 kts | 148° |